<?xml version="1.0" encoding="UTF-8" standalone="no" ?>
<gpx xmlns="http://www.topografix.com/GPX/1/1" xmlns:xsi="http://www.w3.org/2001/XMLSchema-instance" xsi:schemaLocation="http://www.topografix.com/GPX/1/1 http://www.topografix.com/GPX/1/1/gpx.xsd" version="1.1" creator="VisuGPX - https://www.visugpx.com">
  <metadata>
    <name>tracebalade rouperroux 14 juillet 2024</name>
  </metadata>
  <trk>
    <name><![CDATA[Balade Rouperoux du 14 juillet 2024-19330369]]></name>
    <extensions>
      <line xmlns="http://www.topografix.com/GPX/gpx_style/0/2">
        <color>0000FF</color>
        <width>4</width>
      </line>
    </extensions>
    <trkseg>
      <trkpt lat="48.54714" lon="-0.0824">
        <ele>274</ele>
        <time>2024-07-01T10:55:29Z</time>
      </trkpt>
      <trkpt lat="48.54723" lon="-0.08249">
        <ele>274</ele>
        <time>2024-07-01T10:55:38Z</time>
      </trkpt>
      <trkpt lat="48.54733" lon="-0.08267">
        <ele>274</ele>
        <time>2024-07-01T10:55:50Z</time>
      </trkpt>
      <trkpt lat="48.5474" lon="-0.08296">
        <ele>273</ele>
        <time>2024-07-01T10:56:06Z</time>
      </trkpt>
      <trkpt lat="48.54745" lon="-0.08347">
        <ele>273</ele>
        <time>2024-07-01T10:56:34Z</time>
      </trkpt>
      <trkpt lat="48.54747" lon="-0.08377">
        <ele>273</ele>
        <time>2024-07-01T10:56:50Z</time>
      </trkpt>
      <trkpt lat="48.54745" lon="-0.08419">
        <ele>273</ele>
        <time>2024-07-01T10:57:12Z</time>
      </trkpt>
      <trkpt lat="48.54742" lon="-0.08436">
        <ele>273</ele>
        <time>2024-07-01T10:57:21Z</time>
      </trkpt>
      <trkpt lat="48.54739" lon="-0.08446">
        <ele>273</ele>
        <time>2024-07-01T10:57:27Z</time>
      </trkpt>
      <trkpt lat="48.54738" lon="-0.08448">
        <ele>273</ele>
        <time>2024-07-01T10:57:29Z</time>
      </trkpt>
      <trkpt lat="48.54733" lon="-0.0845">
        <ele>272</ele>
        <time>2024-07-01T10:57:33Z</time>
      </trkpt>
      <trkpt lat="48.54737" lon="-0.0848">
        <ele>273</ele>
        <time>2024-07-01T10:57:49Z</time>
      </trkpt>
      <trkpt lat="48.54784" lon="-0.08499">
        <ele>275</ele>
        <time>2024-07-01T10:58:28Z</time>
      </trkpt>
      <trkpt lat="48.54796" lon="-0.08504">
        <ele>275</ele>
        <time>2024-07-01T10:58:38Z</time>
      </trkpt>
      <trkpt lat="48.54804" lon="-0.08501">
        <ele>276</ele>
        <time>2024-07-01T10:58:44Z</time>
      </trkpt>
      <trkpt lat="48.54842" lon="-0.08498">
        <ele>277</ele>
        <time>2024-07-01T10:59:15Z</time>
      </trkpt>
      <trkpt lat="48.54867" lon="-0.08488">
        <ele>278</ele>
        <time>2024-07-01T10:59:36Z</time>
      </trkpt>
      <trkpt lat="48.54894" lon="-0.08472">
        <ele>280</ele>
        <time>2024-07-01T10:59:59Z</time>
      </trkpt>
      <trkpt lat="48.54909" lon="-0.0846">
        <ele>280</ele>
        <time>2024-07-01T11:00:12Z</time>
      </trkpt>
      <trkpt lat="48.54917" lon="-0.08446">
        <ele>280</ele>
        <time>2024-07-01T11:00:22Z</time>
      </trkpt>
      <trkpt lat="48.5492" lon="-0.08424">
        <ele>280</ele>
        <time>2024-07-01T11:00:34Z</time>
      </trkpt>
      <trkpt lat="48.54924" lon="-0.08383">
        <ele>281</ele>
        <time>2024-07-01T11:00:56Z</time>
      </trkpt>
      <trkpt lat="48.54929" lon="-0.08349">
        <ele>282</ele>
        <time>2024-07-01T11:01:15Z</time>
      </trkpt>
      <trkpt lat="48.54938" lon="-0.08325">
        <ele>283</ele>
        <time>2024-07-01T11:01:29Z</time>
      </trkpt>
      <trkpt lat="48.54961" lon="-0.08287">
        <ele>286</ele>
        <time>2024-07-01T11:01:56Z</time>
      </trkpt>
      <trkpt lat="48.54966" lon="-0.08269">
        <ele>286</ele>
        <time>2024-07-01T11:02:07Z</time>
      </trkpt>
      <trkpt lat="48.54968" lon="-0.08252">
        <ele>287</ele>
        <time>2024-07-01T11:02:16Z</time>
      </trkpt>
      <trkpt lat="48.54978" lon="-0.08239">
        <ele>287</ele>
        <time>2024-07-01T11:02:27Z</time>
      </trkpt>
      <trkpt lat="48.55192" lon="-0.08162">
        <ele>299</ele>
        <time>2024-07-01T11:05:23Z</time>
      </trkpt>
      <trkpt lat="48.5538" lon="-0.08077">
        <ele>315</ele>
        <time>2024-07-01T11:08:00Z</time>
      </trkpt>
      <trkpt lat="48.55404" lon="-0.08248">
        <ele>310</ele>
        <time>2024-07-01T11:09:32Z</time>
      </trkpt>
      <trkpt lat="48.55766" lon="-0.08259">
        <ele>344</ele>
        <time>2024-07-01T11:14:22Z</time>
      </trkpt>
      <trkpt lat="48.56075" lon="-0.07868">
        <ele>383</ele>
        <time>2024-07-01T11:19:45Z</time>
      </trkpt>
      <trkpt lat="48.56291" lon="-0.07723">
        <ele>392</ele>
        <time>2024-07-01T11:22:54Z</time>
      </trkpt>
      <trkpt lat="48.56397" lon="-0.07696">
        <ele>405</ele>
        <time>2024-07-01T11:24:20Z</time>
      </trkpt>
      <trkpt lat="48.56333" lon="-0.07573">
        <ele>400</ele>
        <time>2024-07-01T11:25:43Z</time>
      </trkpt>
      <trkpt lat="48.56266" lon="-0.07434">
        <ele>400</ele>
        <time>2024-07-01T11:27:14Z</time>
      </trkpt>
      <trkpt lat="48.56184" lon="-0.07294">
        <ele>399</ele>
        <time>2024-07-01T11:28:53Z</time>
      </trkpt>
      <trkpt lat="48.56075" lon="-0.07171">
        <ele>401</ele>
        <time>2024-07-01T11:30:42Z</time>
      </trkpt>
      <trkpt lat="48.56028" lon="-0.07">
        <ele>403</ele>
        <time>2024-07-01T11:32:21Z</time>
      </trkpt>
      <trkpt lat="48.55908" lon="-0.06764">
        <ele>402</ele>
        <time>2024-07-01T11:34:58Z</time>
      </trkpt>
      <trkpt lat="48.55812" lon="-0.06512">
        <ele>405</ele>
        <time>2024-07-01T11:37:32Z</time>
      </trkpt>
      <trkpt lat="48.55784" lon="-0.06298">
        <ele>399</ele>
        <time>2024-07-01T11:39:28Z</time>
      </trkpt>
      <trkpt lat="48.55695" lon="-0.05944">
        <ele>398</ele>
        <time>2024-07-01T11:42:49Z</time>
      </trkpt>
      <trkpt lat="48.5566" lon="-0.05944">
        <ele>398</ele>
        <time>2024-07-01T11:43:17Z</time>
      </trkpt>
      <trkpt lat="48.5556" lon="-0.05543">
        <ele>392</ele>
        <time>2024-07-01T11:47:04Z</time>
      </trkpt>
      <trkpt lat="48.5555" lon="-0.05237">
        <ele>388</ele>
        <time>2024-07-01T11:49:46Z</time>
      </trkpt>
      <trkpt lat="48.55543" lon="-0.04809">
        <ele>394</ele>
        <time>2024-07-01T11:53:33Z</time>
      </trkpt>
      <trkpt lat="48.55525" lon="-0.04455">
        <ele>407</ele>
        <time>2024-07-01T11:56:41Z</time>
      </trkpt>
      <trkpt lat="48.555" lon="-0.04005">
        <ele>411</ele>
        <time>2024-07-01T12:00:40Z</time>
      </trkpt>
      <trkpt lat="48.55848" lon="-0.03898">
        <ele>384</ele>
        <time>2024-07-01T12:05:25Z</time>
      </trkpt>
      <trkpt lat="48.56167" lon="-0.03801">
        <ele>380</ele>
        <time>2024-07-01T12:09:45Z</time>
      </trkpt>
      <trkpt lat="48.56206" lon="-0.03957">
        <ele>377</ele>
        <time>2024-07-01T12:11:14Z</time>
      </trkpt>
      <trkpt lat="48.56259" lon="-0.04144">
        <ele>368</ele>
        <time>2024-07-01T12:13:01Z</time>
      </trkpt>
      <trkpt lat="48.56309" lon="-0.04337">
        <ele>357</ele>
        <time>2024-07-01T12:14:51Z</time>
      </trkpt>
      <trkpt lat="48.56348" lon="-0.04503">
        <ele>341</ele>
        <time>2024-07-01T12:16:25Z</time>
      </trkpt>
      <trkpt lat="48.5645" lon="-0.04691">
        <ele>326</ele>
        <time>2024-07-01T12:18:33Z</time>
      </trkpt>
      <trkpt lat="48.56479" lon="-0.04835">
        <ele>322</ele>
        <time>2024-07-01T12:19:53Z</time>
      </trkpt>
      <trkpt lat="48.5666" lon="-0.04782">
        <ele>314</ele>
        <time>2024-07-01T12:22:21Z</time>
      </trkpt>
      <trkpt lat="48.56801" lon="-0.04739">
        <ele>306</ele>
        <time>2024-07-01T12:24:16Z</time>
      </trkpt>
      <trkpt lat="48.56932" lon="-0.0476">
        <ele>307</ele>
        <time>2024-07-01T12:26:02Z</time>
      </trkpt>
      <trkpt lat="48.56925" lon="-0.04889">
        <ele>313</ele>
        <time>2024-07-01T12:27:10Z</time>
      </trkpt>
      <trkpt lat="48.56808" lon="-0.04991">
        <ele>313</ele>
        <time>2024-07-01T12:28:58Z</time>
      </trkpt>
      <trkpt lat="48.5694" lon="-0.04916">
        <ele>315</ele>
        <time>2024-07-01T12:30:51Z</time>
      </trkpt>
      <trkpt lat="48.5689" lon="-0.05205">
        <ele>328</ele>
        <time>2024-07-01T12:33:29Z</time>
      </trkpt>
      <trkpt lat="48.5683" lon="-0.05607">
        <ele>341</ele>
        <time>2024-07-01T12:37:08Z</time>
      </trkpt>
      <trkpt lat="48.56791" lon="-0.05907">
        <ele>353</ele>
        <time>2024-07-01T12:39:50Z</time>
      </trkpt>
      <trkpt lat="48.56652" lon="-0.05864">
        <ele>351</ele>
        <time>2024-07-01T12:41:43Z</time>
      </trkpt>
      <trkpt lat="48.56571" lon="-0.05735">
        <ele>353</ele>
        <time>2024-07-01T12:43:18Z</time>
      </trkpt>
      <trkpt lat="48.56472" lon="-0.05709">
        <ele>358</ele>
        <time>2024-07-01T12:44:38Z</time>
      </trkpt>
      <trkpt lat="48.5633" lon="-0.05805">
        <ele>357</ele>
        <time>2024-07-01T12:46:43Z</time>
      </trkpt>
      <trkpt lat="48.56153" lon="-0.05918">
        <ele>359</ele>
        <time>2024-07-01T12:49:16Z</time>
      </trkpt>
      <trkpt lat="48.56004" lon="-0.05971">
        <ele>369</ele>
        <time>2024-07-01T12:51:19Z</time>
      </trkpt>
      <trkpt lat="48.55911" lon="-0.05891">
        <ele>378</ele>
        <time>2024-07-01T12:52:45Z</time>
      </trkpt>
      <trkpt lat="48.55841" lon="-0.05778">
        <ele>386</ele>
        <time>2024-07-01T12:54:07Z</time>
      </trkpt>
      <trkpt lat="48.55741" lon="-0.05623">
        <ele>392</ele>
        <time>2024-07-01T12:56:01Z</time>
      </trkpt>
      <trkpt lat="48.55606" lon="-0.05532">
        <ele>393</ele>
        <time>2024-07-01T12:58:00Z</time>
      </trkpt>
      <trkpt lat="48.55493" lon="-0.05843">
        <ele>389</ele>
        <time>2024-07-01T13:01:08Z</time>
      </trkpt>
      <trkpt lat="48.5539" lon="-0.06207">
        <ele>358</ele>
        <time>2024-07-01T13:04:38Z</time>
      </trkpt>
      <trkpt lat="48.55291" lon="-0.06652">
        <ele>330</ele>
        <time>2024-07-01T13:08:46Z</time>
      </trkpt>
      <trkpt lat="48.55177" lon="-0.07128">
        <ele>318</ele>
        <time>2024-07-01T13:13:15Z</time>
      </trkpt>
      <trkpt lat="48.55046" lon="-0.07155">
        <ele>307</ele>
        <time>2024-07-01T13:15:01Z</time>
      </trkpt>
      <trkpt lat="48.54794" lon="-0.07128">
        <ele>293</ele>
        <time>2024-07-01T13:18:23Z</time>
      </trkpt>
      <trkpt lat="48.54617" lon="-0.0731">
        <ele>286</ele>
        <time>2024-07-01T13:21:14Z</time>
      </trkpt>
      <trkpt lat="48.54681" lon="-0.07503">
        <ele>289</ele>
        <time>2024-07-01T13:23:09Z</time>
      </trkpt>
      <trkpt lat="48.54667" lon="-0.0776">
        <ele>288</ele>
        <time>2024-07-01T13:25:25Z</time>
      </trkpt>
      <trkpt lat="48.54727" lon="-0.08066">
        <ele>280</ele>
        <time>2024-07-01T13:28:15Z</time>
      </trkpt>
      <trkpt lat="48.54711" lon="-0.08223">
        <ele>275</ele>
        <time>2024-07-01T13:29:39Z</time>
      </trkpt>
    </trkseg>
  </trk>
</gpx>